sensor_id;sensor_type;location;lat;lon;timestamp;P1;durP1;ratioP1;P2;durP2;ratioP2
19863;SDS011;10094;48.820;9.226;2023-10-08T00:03:42;8.90;;;5.32;;
19863;SDS011;10094;48.820;9.226;2023-10-08T00:10:36;11.60;;;6.35;;
19863;SDS011;10094;48.820;9.226;2023-10-08T00:17:22;10.70;;;6.85;;
19863;SDS011;10094;48.820;9.226;2023-10-08T00:24:05;11.18;;;6.35;;
19863;SDS011;10094;48.820;9.226;2023-10-08T00:30:48;10.98;;;6.15;;
19863;SDS011;10094;48.820;9.226;2023-10-08T00:37:31;9.88;;;6.32;;
19863;SDS011;10094;48.820;9.226;2023-10-08T00:44:16;12.95;;;7.40;;
19863;SDS011;10094;48.820;9.226;2023-10-08T00:51:05;12.98;;;6.60;;
19863;SDS011;10094;48.820;9.226;2023-10-08T00:58:13;10.65;;;5.65;;
19863;SDS011;10094;48.820;9.226;2023-10-08T01:05:06;8.52;;;5.63;;
19863;SDS011;10094;48.820;9.226;2023-10-08T01:18:58;29.70;;;21.67;;
19863;SDS011;10094;48.820;9.226;2023-10-08T01:25:45;26.45;;;21.00;;
19863;SDS011;10094;48.820;9.226;2023-10-08T01:32:33;22.40;;;9.07;;
19863;SDS011;10094;48.820;9.226;2023-10-08T01:39:17;11.50;;;7.05;;
19863;SDS011;10094;48.820;9.226;2023-10-08T01:46:02;15.32;;;7.70;;
19863;SDS011;10094;48.820;9.226;2023-10-08T01:52:45;11.95;;;6.43;;
19863;SDS011;10094;48.820;9.226;2023-10-08T01:59:30;12.68;;;6.88;;
19863;SDS011;10094;48.820;9.226;2023-10-08T02:06:14;9.00;;;5.97;;
19863;SDS011;10094;48.820;9.226;2023-10-08T02:12:57;10.93;;;6.53;;
19863;SDS011;10094;48.820;9.226;2023-10-08T02:19:42;11.57;;;6.10;;
19863;SDS011;10094;48.820;9.226;2023-10-08T02:26:24;13.35;;;5.75;;
19863;SDS011;10094;48.820;9.226;2023-10-08T02:33:07;8.70;;;6.10;;
19863;SDS011;10094;48.820;9.226;2023-10-08T02:39:57;10.45;;;5.70;;
19863;SDS011;10094;48.820;9.226;2023-10-08T02:46:40;7.72;;;4.85;;
19863;SDS011;10094;48.820;9.226;2023-10-08T02:53:24;8.07;;;5.20;;
19863;SDS011;10094;48.820;9.226;2023-10-08T03:00:07;6.90;;;5.30;;
19863;SDS011;10094;48.820;9.226;2023-10-08T03:06:54;10.13;;;5.53;;
19863;SDS011;10094;48.820;9.226;2023-10-08T03:13:36;7.97;;;5.22;;
19863;SDS011;10094;48.820;9.226;2023-10-08T03:20:20;12.02;;;5.68;;
19863;SDS011;10094;48.820;9.226;2023-10-08T03:27:20;9.05;;;5.38;;
19863;SDS011;10094;48.820;9.226;2023-10-08T03:34:02;12.15;;;5.70;;
19863;SDS011;10094;48.820;9.226;2023-10-08T03:40:46;10.15;;;5.40;;
19863;SDS011;10094;48.820;9.226;2023-10-08T03:47:31;7.43;;;4.85;;
19863;SDS011;10094;48.820;9.226;2023-10-08T03:54:14;8.70;;;5.97;;
19863;SDS011;10094;48.820;9.226;2023-10-08T04:00:56;9.55;;;5.07;;
19863;SDS011;10094;48.820;9.226;2023-10-08T04:07:51;8.82;;;5.88;;
19863;SDS011;10094;48.820;9.226;2023-10-08T04:14:39;8.82;;;6.18;;
19863;SDS011;10094;48.820;9.226;2023-10-08T04:21:22;8.95;;;5.78;;
19863;SDS011;10094;48.820;9.226;2023-10-08T04:28:09;9.90;;;5.82;;
19863;SDS011;10094;48.820;9.226;2023-10-08T04:35:02;9.07;;;5.65;;
19863;SDS011;10094;48.820;9.226;2023-10-08T04:41:49;8.18;;;5.25;;
19863;SDS011;10094;48.820;9.226;2023-10-08T04:48:36;10.05;;;6.18;;
19863;SDS011;10094;48.820;9.226;2023-10-08T04:55:18;8.15;;;5.03;;
19863;SDS011;10094;48.820;9.226;2023-10-08T05:02:10;9.63;;;5.38;;
19863;SDS011;10094;48.820;9.226;2023-10-08T05:16:02;9.30;;;5.22;;
19863;SDS011;10094;48.820;9.226;2023-10-08T05:23:01;9.02;;;5.72;;
19863;SDS011;10094;48.820;9.226;2023-10-08T05:30:02;10.38;;;5.20;;
19863;SDS011;10094;48.820;9.226;2023-10-08T05:37:17;10.18;;;5.40;;
19863;SDS011;10094;48.820;9.226;2023-10-08T05:44:23;11.68;;;5.10;;
19863;SDS011;10094;48.820;9.226;2023-10-08T05:51:08;8.48;;;5.35;;
19863;SDS011;10094;48.820;9.226;2023-10-08T05:58:15;11.10;;;6.15;;
19863;SDS011;10094;48.820;9.226;2023-10-08T06:05:01;8.35;;;5.30;;
19863;SDS011;10094;48.820;9.226;2023-10-08T06:11:53;8.88;;;5.38;;
19863;SDS011;10094;48.820;9.226;2023-10-08T06:18:49;8.63;;;5.68;;
19863;SDS011;10094;48.820;9.226;2023-10-08T06:25:32;9.25;;;5.47;;
19863;SDS011;10094;48.820;9.226;2023-10-08T06:32:14;8.18;;;5.53;;
19863;SDS011;10094;48.820;9.226;2023-10-08T06:38:57;9.95;;;6.10;;
19863;SDS011;10094;48.820;9.226;2023-10-08T06:45:41;8.60;;;5.28;;
19863;SDS011;10094;48.820;9.226;2023-10-08T06:52:25;10.13;;;5.70;;
19863;SDS011;10094;48.820;9.226;2023-10-08T06:59:08;11.15;;;6.45;;
19863;SDS011;10094;48.820;9.226;2023-10-08T07:05:51;8.77;;;5.82;;
19863;SDS011;10094;48.820;9.226;2023-10-08T07:12:40;11.40;;;6.70;;
19863;SDS011;10094;48.820;9.226;2023-10-08T07:19:24;9.75;;;5.78;;
19863;SDS011;10094;48.820;9.226;2023-10-08T07:26:14;10.95;;;6.10;;
19863;SDS011;10094;48.820;9.226;2023-10-08T07:32:59;9.48;;;6.00;;
19863;SDS011;10094;48.820;9.226;2023-10-08T07:39:41;11.93;;;6.07;;
19863;SDS011;10094;48.820;9.226;2023-10-08T07:46:29;9.63;;;6.15;;
19863;SDS011;10094;48.820;9.226;2023-10-08T07:53:12;8.48;;;5.70;;
19863;SDS011;10094;48.820;9.226;2023-10-08T07:59:59;10.40;;;5.88;;
19863;SDS011;10094;48.820;9.226;2023-10-08T08:07:00;8.43;;;6.13;;
19863;SDS011;10094;48.820;9.226;2023-10-08T08:13:46;9.93;;;6.00;;
19863;SDS011;10094;48.820;9.226;2023-10-08T08:20:28;13.80;;;6.07;;
19863;SDS011;10094;48.820;9.226;2023-10-08T08:27:20;8.38;;;5.95;;
19863;SDS011;10094;48.820;9.226;2023-10-08T08:34:06;11.80;;;6.13;;
19863;SDS011;10094;48.820;9.226;2023-10-08T08:41:02;13.85;;;7.00;;
19863;SDS011;10094;48.820;9.226;2023-10-08T08:47:49;9.68;;;6.63;;
19863;SDS011;10094;48.820;9.226;2023-10-08T08:54:32;8.60;;;5.68;;
19863;SDS011;10094;48.820;9.226;2023-10-08T09:01:14;10.95;;;6.05;;
19863;SDS011;10094;48.820;9.226;2023-10-08T09:08:08;11.00;;;5.68;;
19863;SDS011;10094;48.820;9.226;2023-10-08T09:14:51;10.07;;;5.60;;
19863;SDS011;10094;48.820;9.226;2023-10-08T09:21:33;7.83;;;5.07;;
19863;SDS011;10094;48.820;9.226;2023-10-08T09:48:24;8.05;;;4.65;;
19863;SDS011;10094;48.820;9.226;2023-10-08T09:55:08;7.47;;;5.03;;
19863;SDS011;10094;48.820;9.226;2023-10-08T10:01:53;9.57;;;4.35;;
19863;SDS011;10094;48.820;9.226;2023-10-08T10:08:41;9.45;;;4.72;;
19863;SDS011;10094;48.820;9.226;2023-10-08T10:15:24;11.60;;;4.80;;
19863;SDS011;10094;48.820;9.226;2023-10-08T10:22:14;7.30;;;4.15;;
19863;SDS011;10094;48.820;9.226;2023-10-08T10:35:57;7.18;;;4.45;;
19863;SDS011;10094;48.820;9.226;2023-10-08T10:42:40;8.05;;;3.92;;
19863;SDS011;10094;48.820;9.226;2023-10-08T10:49:29;6.90;;;4.68;;
19863;SDS011;10094;48.820;9.226;2023-10-08T10:56:14;6.13;;;4.25;;
19863;SDS011;10094;48.820;9.226;2023-10-08T11:03:11;7.10;;;4.40;;
19863;SDS011;10094;48.820;9.226;2023-10-08T11:10:00;7.45;;;4.28;;
19863;SDS011;10094;48.820;9.226;2023-10-08T11:16:51;6.53;;;4.28;;
19863;SDS011;10094;48.820;9.226;2023-10-08T11:23:37;8.82;;;6.32;;
19863;SDS011;10094;48.820;9.226;2023-10-08T11:30:24;7.40;;;4.53;;
19863;SDS011;10094;48.820;9.226;2023-10-08T11:37:11;8.57;;;4.35;;
19863;SDS011;10094;48.820;9.226;2023-10-08T11:44:03;7.90;;;4.50;;
19863;SDS011;10094;48.820;9.226;2023-10-08T11:50:45;8.70;;;5.45;;
19863;SDS011;10094;48.820;9.226;2023-10-08T11:57:29;8.75;;;4.75;;
19863;SDS011;10094;48.820;9.226;2023-10-08T12:04:14;9.32;;;4.57;;
19863;SDS011;10094;48.820;9.226;2023-10-08T12:10:58;7.70;;;4.72;;
19863;SDS011;10094;48.820;9.226;2023-10-08T12:17:41;12.25;;;5.35;;
19863;SDS011;10094;48.820;9.226;2023-10-08T12:24:24;8.27;;;4.53;;
19863;SDS011;10094;48.820;9.226;2023-10-08T12:31:06;7.68;;;4.63;;
19863;SDS011;10094;48.820;9.226;2023-10-08T12:37:53;9.63;;;4.05;;
19863;SDS011;10094;48.820;9.226;2023-10-08T12:44:36;9.40;;;5.13;;
19863;SDS011;10094;48.820;9.226;2023-10-08T12:51:30;9.50;;;4.55;;
19863;SDS011;10094;48.820;9.226;2023-10-08T12:58:17;8.98;;;4.90;;
19863;SDS011;10094;48.820;9.226;2023-10-08T13:05:01;8.95;;;5.07;;
19863;SDS011;10094;48.820;9.226;2023-10-08T13:11:50;8.80;;;4.50;;
19863;SDS011;10094;48.820;9.226;2023-10-08T13:18:33;16.83;;;5.68;;
19863;SDS011;10094;48.820;9.226;2023-10-08T13:25:19;11.90;;;5.30;;
19863;SDS011;10094;48.820;9.226;2023-10-08T13:32:02;9.68;;;5.28;;
19863;SDS011;10094;48.820;9.226;2023-10-08T13:38:45;11.52;;;4.68;;
19863;SDS011;10094;48.820;9.226;2023-10-08T13:45:28;11.57;;;5.07;;
19863;SDS011;10094;48.820;9.226;2023-10-08T13:52:11;10.02;;;4.75;;
19863;SDS011;10094;48.820;9.226;2023-10-08T13:58:54;9.75;;;5.55;;
19863;SDS011;10094;48.820;9.226;2023-10-08T14:05:46;9.02;;;4.57;;
19863;SDS011;10094;48.820;9.226;2023-10-08T14:12:31;9.35;;;4.65;;
19863;SDS011;10094;48.820;9.226;2023-10-08T14:19:16;11.38;;;4.93;;
19863;SDS011;10094;48.820;9.226;2023-10-08T14:25:58;9.38;;;4.10;;
19863;SDS011;10094;48.820;9.226;2023-10-08T14:32:45;10.13;;;4.93;;
19863;SDS011;10094;48.820;9.226;2023-10-08T14:39:28;12.95;;;4.85;;
19863;SDS011;10094;48.820;9.226;2023-10-08T14:46:29;10.73;;;4.82;;
19863;SDS011;10094;48.820;9.226;2023-10-08T14:53:14;6.82;;;4.32;;
19863;SDS011;10094;48.820;9.226;2023-10-08T14:59:56;9.25;;;4.68;;
19863;SDS011;10094;48.820;9.226;2023-10-08T15:06:39;8.40;;;4.88;;
19863;SDS011;10094;48.820;9.226;2023-10-08T15:13:22;19.35;;;5.00;;
19863;SDS011;10094;48.820;9.226;2023-10-08T15:20:07;10.15;;;4.53;;
19863;SDS011;10094;48.820;9.226;2023-10-08T15:26:50;7.35;;;4.07;;
19863;SDS011;10094;48.820;9.226;2023-10-08T15:33:34;7.60;;;4.20;;
19863;SDS011;10094;48.820;9.226;2023-10-08T15:40:17;12.95;;;5.07;;
19863;SDS011;10094;48.820;9.226;2023-10-08T15:46:59;8.60;;;4.45;;
19863;SDS011;10094;48.820;9.226;2023-10-08T15:53:42;8.98;;;4.45;;
19863;SDS011;10094;48.820;9.226;2023-10-08T16:00:24;6.85;;;4.38;;
19863;SDS011;10094;48.820;9.226;2023-10-08T16:07:06;12.55;;;4.90;;
19863;SDS011;10094;48.820;9.226;2023-10-08T16:13:49;8.98;;;4.65;;
19863;SDS011;10094;48.820;9.226;2023-10-08T16:20:31;12.10;;;5.07;;
19863;SDS011;10094;48.820;9.226;2023-10-08T16:27:14;8.68;;;5.45;;
19863;SDS011;10094;48.820;9.226;2023-10-08T16:33:57;16.60;;;6.40;;
19863;SDS011;10094;48.820;9.226;2023-10-08T16:40:39;12.60;;;6.40;;
19863;SDS011;10094;48.820;9.226;2023-10-08T16:47:22;11.90;;;6.60;;
19863;SDS011;10094;48.820;9.226;2023-10-08T16:54:05;15.77;;;9.18;;
19863;SDS011;10094;48.820;9.226;2023-10-08T17:00:51;14.18;;;6.75;;
19863;SDS011;10094;48.820;9.226;2023-10-08T17:07:34;13.00;;;6.00;;
19863;SDS011;10094;48.820;9.226;2023-10-08T17:14:16;14.77;;;6.47;;
19863;SDS011;10094;48.820;9.226;2023-10-08T17:20:59;15.10;;;5.90;;
19863;SDS011;10094;48.820;9.226;2023-10-08T17:27:42;17.00;;;7.55;;
19863;SDS011;10094;48.820;9.226;2023-10-08T17:34:28;14.07;;;7.18;;
19863;SDS011;10094;48.820;9.226;2023-10-08T17:41:11;10.05;;;6.32;;
19863;SDS011;10094;48.820;9.226;2023-10-08T17:47:53;13.98;;;6.38;;
19863;SDS011;10094;48.820;9.226;2023-10-08T17:54:36;11.38;;;6.10;;
19863;SDS011;10094;48.820;9.226;2023-10-08T18:01:18;14.32;;;6.68;;
19863;SDS011;10094;48.820;9.226;2023-10-08T18:08:01;11.43;;;7.10;;
19863;SDS011;10094;48.820;9.226;2023-10-08T18:14:44;15.05;;;7.90;;
19863;SDS011;10094;48.820;9.226;2023-10-08T18:21:29;15.23;;;8.80;;
19863;SDS011;10094;48.820;9.226;2023-10-08T18:28:12;17.10;;;8.35;;
19863;SDS011;10094;48.820;9.226;2023-10-08T18:34:55;16.55;;;9.00;;
19863;SDS011;10094;48.820;9.226;2023-10-08T18:41:38;14.45;;;8.55;;
19863;SDS011;10094;48.820;9.226;2023-10-08T18:48:22;11.00;;;7.40;;
19863;SDS011;10094;48.820;9.226;2023-10-08T18:55:04;16.05;;;7.43;;
19863;SDS011;10094;48.820;9.226;2023-10-08T19:01:47;16.10;;;8.15;;
19863;SDS011;10094;48.820;9.226;2023-10-08T19:08:32;13.45;;;7.38;;
19863;SDS011;10094;48.820;9.226;2023-10-08T19:15:16;17.55;;;10.57;;
19863;SDS011;10094;48.820;9.226;2023-10-08T19:21:58;12.60;;;7.28;;
19863;SDS011;10094;48.820;9.226;2023-10-08T19:28:41;18.35;;;8.82;;
19863;SDS011;10094;48.820;9.226;2023-10-08T19:35:24;12.00;;;7.97;;
19863;SDS011;10094;48.820;9.226;2023-10-08T19:42:07;19.05;;;7.72;;
19863;SDS011;10094;48.820;9.226;2023-10-08T19:48:52;15.07;;;7.85;;
19863;SDS011;10094;48.820;9.226;2023-10-08T19:55:39;11.98;;;7.43;;
19863;SDS011;10094;48.820;9.226;2023-10-08T20:02:22;29.27;;;16.83;;
19863;SDS011;10094;48.820;9.226;2023-10-08T20:09:04;20.42;;;8.13;;
19863;SDS011;10094;48.820;9.226;2023-10-08T20:15:48;13.35;;;8.05;;
19863;SDS011;10094;48.820;9.226;2023-10-08T20:22:33;15.80;;;8.10;;
19863;SDS011;10094;48.820;9.226;2023-10-08T20:29:16;19.17;;;8.23;;
19863;SDS011;10094;48.820;9.226;2023-10-08T20:35:59;12.23;;;8.05;;
19863;SDS011;10094;48.820;9.226;2023-10-08T20:42:46;15.65;;;8.68;;
19863;SDS011;10094;48.820;9.226;2023-10-08T20:49:35;17.17;;;8.10;;
19863;SDS011;10094;48.820;9.226;2023-10-08T20:56:18;15.15;;;8.25;;
19863;SDS011;10094;48.820;9.226;2023-10-08T21:03:04;17.35;;;8.95;;
19863;SDS011;10094;48.820;9.226;2023-10-08T21:09:48;15.02;;;8.50;;
19863;SDS011;10094;48.820;9.226;2023-10-08T21:16:32;18.23;;;8.82;;
19863;SDS011;10094;48.820;9.226;2023-10-08T21:23:14;14.02;;;8.07;;
19863;SDS011;10094;48.820;9.226;2023-10-08T21:29:56;12.50;;;8.43;;
19863;SDS011;10094;48.820;9.226;2023-10-08T21:36:39;17.23;;;8.30;;
19863;SDS011;10094;48.820;9.226;2023-10-08T21:43:21;14.98;;;8.48;;
19863;SDS011;10094;48.820;9.226;2023-10-08T21:50:04;11.38;;;7.13;;
19863;SDS011;10094;48.820;9.226;2023-10-08T21:56:50;17.38;;;8.45;;
19863;SDS011;10094;48.820;9.226;2023-10-08T22:03:32;15.57;;;8.18;;
19863;SDS011;10094;48.820;9.226;2023-10-08T22:10:15;15.43;;;8.85;;
19863;SDS011;10094;48.820;9.226;2023-10-08T22:17:02;13.93;;;8.20;;
19863;SDS011;10094;48.820;9.226;2023-10-08T22:23:53;15.95;;;8.05;;
19863;SDS011;10094;48.820;9.226;2023-10-08T22:30:35;15.68;;;8.48;;
19863;SDS011;10094;48.820;9.226;2023-10-08T22:37:21;21.13;;;9.05;;
19863;SDS011;10094;48.820;9.226;2023-10-08T22:44:36;14.98;;;8.35;;
19863;SDS011;10094;48.820;9.226;2023-10-08T22:51:18;14.77;;;8.63;;
19863;SDS011;10094;48.820;9.226;2023-10-08T22:58:07;12.32;;;7.72;;
19863;SDS011;10094;48.820;9.226;2023-10-08T23:04:49;13.68;;;7.90;;
19863;SDS011;10094;48.820;9.226;2023-10-08T23:11:32;16.10;;;8.60;;
19863;SDS011;10094;48.820;9.226;2023-10-08T23:18:16;15.02;;;8.70;;
19863;SDS011;10094;48.820;9.226;2023-10-08T23:25:05;16.08;;;8.52;;
19863;SDS011;10094;48.820;9.226;2023-10-08T23:31:47;14.18;;;8.13;;
19863;SDS011;10094;48.820;9.226;2023-10-08T23:38:30;16.27;;;9.27;;
19863;SDS011;10094;48.820;9.226;2023-10-08T23:45:14;20.80;;;9.20;;
19863;SDS011;10094;48.820;9.226;2023-10-08T23:51:57;15.25;;;8.88;;
19863;SDS011;10094;48.820;9.226;2023-10-08T23:58:41;14.77;;;8.30;;
